Time;durP1;ratioP1;P1;durP2;ratioP2;P2;SDS_P1;SDS_P2;PMS_P1;PMS_P2;Temp;Humidity;BMP_temperature;BMP_pressure;BME280_temperature;BME280_humidity;BME280_pressure;Samples;Min_cycle;Max_cycle;Signal;HPM_P1;HPM_P2
2023/10/19 00:00:18;;;;;;;23.50;20.10;;;;;;;10.65;100.00;154093.72;5033267;28;20432;-84
2023/10/19 00:02:44;;;;;;;22.20;18.53;;;;;;;10.69;100.00;154105.41;5046893;28;20955;-85
2023/10/19 00:05:12;;;;;;;20.30;17.60;;;;;;;10.72;100.00;154111.88;5047881;28;20873;-85
2023/10/19 00:07:40;;;;;;;20.00;17.90;;;;;;;10.74;100.00;154118.34;5042931;28;20540;-84
2023/10/19 00:10:07;;;;;;;21.00;16.60;;;;;;;10.77;100.00;154126.13;5043916;28;20453;-84
2023/10/19 00:12:33;;;;;;;21.70;17.87;;;;;;;10.80;100.00;154132.59;5031159;28;20442;-84
2023/10/19 00:15:03;;;;;;;20.20;17.53;;;;;;;10.83;100.00;154140.31;5049522;28;20522;-84
2023/10/19 00:17:30;;;;;;;20.83;16.57;;;;;;;10.83;100.00;154141.63;5048920;28;20960;-85
2023/10/19 00:20:09;;;;;;;20.87;18.63;;;;;;;10.85;100.00;154145.53;5025969;28;20476;-84
2023/10/19 00:22:42;;;;;;;18.23;16.33;;;;;;;10.85;100.00;154146.84;5034941;28;20491;-84
2023/10/19 00:25:13;;;;;;;19.17;16.60;;;;;;;10.85;100.00;154146.84;5065035;28;20442;-84
2023/10/19 00:27:39;;;;;;;17.33;15.43;;;;;;;10.87;100.00;154150.72;5030531;28;20482;-83
2023/10/19 00:30:07;;;;;;;18.07;16.20;;;;;;;10.88;100.00;154154.56;5048870;28;20454;-84
2023/10/19 00:32:38;;;;;;;17.37;14.70;;;;;;;10.91;100.00;154162.34;5015163;28;20439;-83
2023/10/19 00:35:21;;;;;;;21.33;15.27;;;;;;;10.93;100.00;154167.53;5010940;28;20435;-84
2023/10/19 00:37:49;;;;;;;18.13;15.20;;;;;;;10.94;100.00;154168.81;5020049;28;20485;-84
2023/10/19 00:40:15;;;;;;;18.20;15.10;;;;;;;10.96;100.00;154174.06;5029479;28;20436;-85
2023/10/19 00:42:46;;;;;;;18.30;14.73;;;;;;;10.98;100.00;154180.53;4994744;28;20472;-85
2023/10/19 00:45:13;;;;;;;16.23;14.53;;;;;;;10.98;100.00;154179.22;5029032;28;20770;-86
2023/10/19 00:47:40;;;;;;;16.60;14.70;;;;;;;10.99;100.00;154183.09;5024226;28;20454;-85
2023/10/19 00:50:14;;;;;;;14.07;12.57;;;;;;;11.04;100.00;154194.72;5043863;28;23624;-84
2023/10/19 00:52:43;;;;;;;17.53;14.40;;;;;;;11.04;100.00;154193.47;5048103;28;21012;-84
2023/10/19 00:55:12;;;;;;;14.07;12.60;;;;;;;11.08;100.00;154203.81;5034183;28;20831;-85
2023/10/19 00:57:42;;;;;;;15.20;13.13;;;;;;;11.11;100.00;154211.59;5051135;28;20749;-85
2023/10/19 01:00:12;;;;;;;13.97;12.50;;;;;;;11.13;100.00;154216.75;5013235;28;20450;-85
2023/10/19 01:02:45;;;;;;;13.87;11.83;;;;;;;11.18;100.00;154229.72;5040564;28;20530;-85
2023/10/19 01:05:13;;;;;;;14.60;12.20;;;;;;;11.20;100.00;154234.94;5037535;28;20520;-85
2023/10/19 01:07:41;;;;;;;15.10;12.60;;;;;;;11.23;100.00;154242.66;5039187;28;20468;-87
2023/10/19 01:10:11;;;;;;;12.90;11.37;;;;;;;11.28;100.00;154256.91;5032520;28;20459;-86
2023/10/19 01:12:39;;;;;;;13.00;11.60;;;;;;;11.29;100.00;154259.53;5030156;28;20664;-85
2023/10/19 01:15:09;;;;;;;15.07;11.00;;;;;;;11.34;100.00;154272.47;5046993;28;20569;-85
2023/10/19 01:17:39;;;;;;;12.90;11.10;;;;;;;11.41;100.00;154289.34;5046145;28;20778;-85
2023/10/19 01:20:14;;;;;;;11.97;10.30;;;;;;;11.47;100.00;154304.84;5033070;28;20876;-85
2023/10/19 01:22:49;;;;;;;11.47;10.30;;;;;;;11.51;100.00;154316.53;5047744;28;20439;-86
2023/10/19 01:25:23;;;;;;;11.63;10.10;;;;;;;11.55;100.00;154326.88;5029335;28;20446;-86
2023/10/19 01:27:57;;;;;;;12.50;11.20;;;;;;;11.57;100.00;154332.06;5036172;28;20458;-86
2023/10/19 01:30:26;;;;;;;12.50;10.80;;;;;;;11.56;100.00;154328.19;5036904;28;20465;-85
2023/10/19 01:32:53;;;;;;;10.57;9.57;;;;;;;11.59;100.00;154337.28;5068127;28;20461;-85
2023/10/19 01:35:20;;;;;;;12.17;10.13;;;;;;;11.62;100.00;154343.75;5045311;28;20960;-85
2023/10/19 01:37:47;;;;;;;11.13;10.03;;;;;;;11.67;100.00;154356.72;5023845;28;20706;-85
2023/10/19 01:40:20;;;;;;;12.07;10.83;;;;;;;11.68;100.00;154357.97;5049842;28;20434;-86
2023/10/19 01:42:46;;;;;;;12.97;11.00;;;;;;;11.67;100.00;154356.72;5050598;28;20426;-86
2023/10/19 01:45:12;;;;;;;12.57;11.27;;;;;;;11.70;100.00;154364.53;5026529;28;20470;-85
2023/10/19 01:47:40;;;;;;;13.10;11.00;;;;;;;11.65;100.00;154350.22;5032236;28;20206;-86
2023/10/19 01:50:19;;;;;;;16.57;11.20;;;;;;;11.61;100.00;154341.16;5027735;28;20824;-86
2023/10/19 01:52:46;;;;;;;13.20;11.33;;;;;;;11.59;100.00;154335.97;5036941;28;20439;-86
2023/10/19 01:55:20;;;;;;;15.43;11.73;;;;;;;11.58;100.00;154333.38;5009003;28;20894;-87
2023/10/19 01:57:46;;;;;;;13.90;12.40;;;;;;;11.56;100.00;154329.50;5021804;28;20423;-87
2023/10/19 02:00:22;;;;;;;15.77;12.57;;;;;;;11.55;100.00;154325.59;5030247;28;20823;-87
2023/10/19 02:02:48;;;;;;;18.23;14.60;;;;;;;11.51;100.00;154315.25;5031985;28;20205;-87
2023/10/19 02:05:15;;;;;;;15.60;13.30;;;;;;;11.51;100.00;154315.25;5025603;28;20524;-86
2023/10/19 02:07:41;;;;;;;14.47;12.80;;;;;;;11.52;100.00;154317.81;5035871;28;20206;-86
2023/10/19 02:10:10;;;;;;;14.47;13.07;;;;;;;11.49;100.00;154310.06;5009637;28;20446;-87
2023/10/19 02:12:36;;;;;;;14.90;12.83;;;;;;;11.53;100.00;154321.72;5010990;28;20201;-86
2023/10/19 02:15:04;;;;;;;15.03;12.40;;;;;;;11.53;100.00;154320.41;5053718;28;21007;-85
2023/10/19 02:17:30;;;;;;;13.73;12.07;;;;;;;11.50;100.00;154313.94;5056671;28;20285;-86
2023/10/19 02:19:58;;;;;;;15.43;13.17;;;;;;;11.50;100.00;154312.63;5035418;28;20794;-86
2023/10/19 02:22:24;;;;;;;14.60;11.53;;;;;;;11.50;100.00;154312.63;5024875;28;20508;-87
2023/10/19 02:24:51;;;;;;;12.67;11.37;;;;;;;11.48;100.00;154307.47;5013179;28;20497;-87
2023/10/19 02:27:18;;;;;;;13.77;12.40;;;;;;;11.46;100.00;154302.28;5046073;28;20520;-87
2023/10/19 02:29:46;;;;;;;14.57;11.90;;;;;;;11.46;100.00;154302.28;5019002;28;20458;-87
2023/10/19 02:32:12;;;;;;;14.63;13.13;;;;;;;11.46;100.00;154302.28;5057082;28;20543;-87
2023/10/19 02:34:38;;;;;;;13.83;12.37;;;;;;;11.44;100.00;154298.38;5049868;28;20497;-87
2023/10/19 02:37:04;;;;;;;12.90;11.50;;;;;;;11.46;100.00;154302.28;5034869;28;20193;-87
2023/10/19 02:39:31;;;;;;;13.87;11.90;;;;;;;11.44;100.00;154298.38;5036742;28;20883;-87
2023/10/19 02:41:56;;;;;;;12.07;10.80;;;;;;;11.45;100.00;154299.69;5024745;28;20200;-87
2023/10/19 02:44:25;;;;;;;14.07;11.17;;;;;;;11.49;100.00;154310.06;5054533;28;20477;-87
2023/10/19 02:46:53;;;;;;;10.90;9.73;;;;;;;11.47;100.00;154304.84;5046594;28;20593;-87
2023/10/19 02:49:22;;;;;;;10.87;9.70;;;;;;;11.47;100.00;154304.84;5042988;28;20438;-88
2023/10/19 02:51:49;;;;;;;11.50;8.80;;;;;;;11.51;100.00;154315.25;5028750;28;20458;-87
2023/10/19 02:54:19;;;;;;;9.53;8.40;;;;;;;11.49;100.00;154311.31;5025643;28;20459;-87
2023/10/19 02:56:49;;;;;;;10.77;9.57;;;;;;;11.49;100.00;154310.06;5031188;28;20819;-87
2023/10/19 02:59:16;;;;;;;11.83;9.10;;;;;;;11.50;100.00;154312.63;5027968;28;20479;-87
2023/10/19 03:01:44;;;;;;;9.13;8.23;;;;;;;11.50;100.00;154313.94;5026389;28;20470;-87
2023/10/19 03:04:12;;;;;;;10.30;8.70;;;;;;;11.49;100.00;154310.06;5011542;28;20809;-88
2023/10/19 03:06:40;;;;;;;8.70;7.80;;;;;;;11.50;100.00;154312.63;5017078;28;20459;-87
2023/10/19 03:09:14;;;;;;;8.80;7.70;;;;;;;11.50;100.00;154312.63;5042883;28;20455;-87
2023/10/19 03:11:41;;;;;;;12.87;8.77;;;;;;;11.49;100.00;154310.06;5026241;28;20447;-87
2023/10/19 03:14:08;;;;;;;8.93;7.97;;;;;;;11.47;100.00;154306.16;5026999;28;20506;-88
2023/10/19 03:16:34;;;;;;;9.27;8.10;;;;;;;11.48;100.00;154307.47;5028983;28;20501;-87
2023/10/19 03:19:03;;;;;;;8.60;7.70;;;;;;;11.48;100.00;154308.75;5021612;28;20447;-87
2023/10/19 03:21:33;;;;;;;9.07;7.60;;;;;;;11.53;100.00;154320.41;5010641;28;20457;-87
2023/10/19 03:24:01;;;;;;;11.30;8.00;;;;;;;11.54;100.00;154323.03;4999493;28;20431;-86
2023/10/19 03:26:30;;;;;;;8.93;7.03;;;;;;;11.55;100.00;154325.59;5014028;28;20461;-86
2023/10/19 03:28:59;;;;;;;12.30;8.20;;;;;;;11.55;100.00;154326.88;5046390;28;20450;-86
2023/10/19 03:31:25;;;;;;;9.20;7.80;;;;;;;11.60;100.00;154338.53;5011936;28;20533;-86
2023/10/19 03:33:55;;;;;;;11.17;8.13;;;;;;;11.62;100.00;154343.75;5027189;28;20494;-86
2023/10/19 03:36:24;;;;;;;8.53;7.57;;;;;;;11.65;100.00;154351.50;5023797;28;20498;-86
2023/10/19 03:38:53;;;;;;;9.83;7.30;;;;;;;11.62;100.00;154345.00;5046081;28;20443;-87
2023/10/19 03:41:23;;;;;;;8.90;7.37;;;;;;;11.57;100.00;154330.75;5045877;28;20508;-87
2023/10/19 03:43:51;;;;;;;10.07;8.13;;;;;;;11.52;100.00;154319.09;5028661;28;20423;-87
2023/10/19 03:46:28;;;;;;;8.60;7.57;;;;;;;11.49;100.00;154310.06;5007466;28;20471;-87
2023/10/19 03:48:58;;;;;;;12.00;8.30;;;;;;;11.45;100.00;154299.69;5012213;28;20500;-87
2023/10/19 03:51:26;;;;;;;12.10;8.50;;;;;;;11.44;100.00;154297.06;5028779;28;20503;-87
2023/10/19 03:53:58;;;;;;;12.27;9.33;;;;;;;11.44;100.00;154297.06;5008861;28;20836;-87
2023/10/19 03:56:25;;;;;;;10.90;9.80;;;;;;;11.42;100.00;154291.91;5010593;28;20446;-86
2023/10/19 03:58:52;;;;;;;10.13;9.03;;;;;;;11.38;100.00;154282.84;5022173;28;20469;-86
2023/10/19 04:01:19;;;;;;;9.57;8.33;;;;;;;11.36;100.00;154276.34;5034249;28;20478;-85
2023/10/19 04:03:47;;;;;;;10.00;8.70;;;;;;;11.32;100.00;154266.00;5021275;28;21238;-85
2023/10/19 04:06:14;;;;;;;11.00;8.87;;;;;;;11.28;100.00;154256.91;5004556;28;20447;-86
2023/10/19 04:08:45;;;;;;;9.60;8.63;;;;;;;11.28;100.00;154255.66;5046953;28;20462;-85
2023/10/19 04:11:21;;;;;;;12.10;9.87;;;;;;;11.27;100.00;154253.03;5024572;28;20462;-85
2023/10/19 04:13:52;;;;;;;10.00;8.93;;;;;;;11.27;100.00;154253.03;5031756;28;20965;-85
2023/10/19 04:16:20;;;;;;;9.70;8.70;;;;;;;11.27;100.00;154253.03;5030650;28;20457;-85
2023/10/19 04:18:47;;;;;;;15.33;9.07;;;;;;;11.25;100.00;154247.88;5014757;28;20442;-86
2023/10/19 04:21:14;;;;;;;12.63;10.80;;;;;;;11.23;100.00;154243.97;5031366;28;20443;-86
2023/10/19 04:23:42;;;;;;;11.33;7.93;;;;;;;11.23;100.00;154242.66;5030578;28;20441;-85
2023/10/19 04:26:11;;;;;;;10.53;9.10;;;;;;;11.23;100.00;154242.66;5047275;28;20504;-85
2023/10/19 04:28:44;;;;;;;13.97;11.00;;;;;;;11.24;100.00;154245.25;5032198;28;20494;-85
2023/10/19 04:31:14;;;;;;;9.87;8.80;;;;;;;11.23;100.00;154243.97;5031230;28;20447;-85
2023/10/19 04:33:42;;;;;;;14.10;8.97;;;;;;;11.26;100.00;154250.44;5029161;28;20945;-86
2023/10/19 04:36:11;;;;;;;11.43;8.37;;;;;;;11.27;100.00;154253.03;5050632;28;20997;-86
2023/10/19 04:38:37;;;;;;;10.73;8.60;;;;;;;11.28;100.00;154256.91;5046255;28;20508;-86
2023/10/19 04:41:08;;;;;;;13.37;8.53;;;;;;;11.29;100.00;154259.53;5048451;28;20459;-87
2023/10/19 04:43:35;;;;;;;11.80;8.83;;;;;;;11.32;100.00;154266.00;5031696;28;20486;-87
2023/10/19 04:46:07;;;;;;;8.77;7.77;;;;;;;11.34;100.00;154271.16;5056625;28;20450;-87
2023/10/19 04:48:35;;;;;;;9.73;8.00;;;;;;;11.37;100.00;154278.94;5050374;28;20439;-87
2023/10/19 04:51:03;;;;;;;10.23;8.20;;;;;;;11.40;100.00;154288.03;5030808;28;20465;-86
2023/10/19 04:53:31;;;;;;;11.90;7.87;;;;;;;11.43;100.00;154294.50;5054309;28;21038;-86
2023/10/19 04:55:57;;;;;;;7.77;6.77;;;;;;;11.46;100.00;154302.28;5034794;28;20481;-87
2023/10/19 04:58:25;;;;;;;8.43;7.53;;;;;;;11.48;100.00;154308.75;5049030;28;20689;-86
2023/10/19 05:00:53;;;;;;;10.23;7.37;;;;;;;11.52;100.00;154317.81;5047434;28;20466;-87
2023/10/19 05:03:20;;;;;;;9.03;6.90;;;;;;;11.53;100.00;154321.72;5020550;28;20463;-87
2023/10/19 05:05:48;;;;;;;7.37;6.57;;;;;;;11.56;100.00;154328.19;5035739;28;20451;-87
2023/10/19 05:08:15;;;;;;;9.53;8.53;;;;;;;11.60;100.00;154339.84;5018390;28;20481;-87
2023/10/19 05:10:42;;;;;;;9.43;8.20;;;;;;;11.60;100.00;154338.53;5020280;28;20512;-87
2023/10/19 05:13:08;;;;;;;13.37;9.30;;;;;;;11.51;100.00;154316.53;5019877;28;20479;-87
2023/10/19 05:15:36;;;;;;;12.60;10.23;;;;;;;11.48;100.00;154307.47;5017229;28;20486;-86
2023/10/19 05:18:04;;;;;;;12.67;9.47;;;;;;;11.43;100.00;154295.81;5034088;28;20977;-86
2023/10/19 05:20:31;;;;;;;11.50;9.50;;;;;;;11.42;100.00;154293.19;5038119;28;20462;-86
2023/10/19 05:22:57;;;;;;;9.97;8.43;;;;;;;11.39;100.00;154284.13;5020685;28;20512;-86
2023/10/19 05:25:24;;;;;;;10.50;9.40;;;;;;;11.36;100.00;154276.34;5042355;28;20448;-86
2023/10/19 05:27:51;;;;;;;13.80;9.57;;;;;;;11.33;100.00;154268.59;5034779;28;20451;-86
2023/10/19 05:30:17;;;;;;;11.37;9.80;;;;;;;11.33;100.00;154268.59;5056259;28;20455;-86
2023/10/19 05:32:46;;;;;;;10.43;9.00;;;;;;;11.30;100.00;154260.81;5054459;28;20499;-86
2023/10/19 05:35:18;;;;;;;8.80;7.90;;;;;;;11.30;100.00;154260.81;5028543;28;21004;-86
2023/10/19 05:37:45;;;;;;;9.40;8.40;;;;;;;11.29;100.00;154258.22;5039883;28;20482;-86
2023/10/19 05:40:14;;;;;;;10.30;8.90;;;;;;;11.28;100.00;154255.66;5019001;28;20458;-86
2023/10/19 05:42:41;;;;;;;8.87;7.83;;;;;;;11.29;100.00;154258.22;5013649;28;20451;-86
2023/10/19 05:45:09;;;;;;;9.77;7.50;;;;;;;11.29;100.00;154258.22;5020579;28;20451;-86
2023/10/19 05:47:36;;;;;;;11.03;8.37;;;;;;;11.30;100.00;154262.13;5041121;28;20445;-86
2023/10/19 05:50:04;;;;;;;10.60;8.03;;;;;;;11.33;100.00;154269.84;5039935;28;20505;-86
2023/10/19 05:52:31;;;;;;;11.87;8.80;;;;;;;11.33;100.00;154269.84;5032646;28;20466;-85
2023/10/19 05:54:59;;;;;;;9.10;7.70;;;;;;;11.33;100.00;154268.59;5007159;28;20472;-85
2023/10/19 05:57:26;;;;;;;9.00;7.60;;;;;;;11.36;100.00;154276.34;5015481;28;20475;-86
2023/10/19 05:59:52;;;;;;;9.30;7.60;;;;;;;11.37;100.00;154278.94;5034911;28;20446;-85
2023/10/19 06:02:19;;;;;;;9.73;7.27;;;;;;;11.40;100.00;154288.03;5033120;28;20617;-85
2023/10/19 06:04:48;;;;;;;9.87;8.17;;;;;;;11.44;100.00;154298.38;5016436;28;20529;-84
2023/10/19 06:07:16;;;;;;;11.40;6.67;;;;;;;11.45;100.00;154300.97;5025942;28;20459;-84
2023/10/19 06:09:42;;;;;;;10.33;8.20;;;;;;;11.49;100.00;154310.06;5034312;28;20512;-84
2023/10/19 06:12:09;;;;;;;13.20;7.10;;;;;;;11.49;100.00;154310.06;5033209;28;20455;-83
2023/10/19 06:14:37;;;;;;;9.80;7.80;;;;;;;11.49;100.00;154311.31;5014035;28;20531;-83
2023/10/19 06:17:03;;;;;;;11.87;7.60;;;;;;;11.50;100.00;154313.94;4996915;28;20816;-85
2023/10/19 06:19:30;;;;;;;8.77;7.67;;;;;;;11.54;100.00;154323.03;4999909;28;20451;-85
2023/10/19 06:21:56;;;;;;;8.13;7.23;;;;;;;11.57;100.00;154330.75;5000627;28;20530;-85
2023/10/19 06:24:24;;;;;;;7.80;7.00;;;;;;;11.59;100.00;154335.97;5016736;28;20505;-85
2023/10/19 06:26:52;;;;;;;11.80;7.17;;;;;;;11.63;100.00;154347.63;4997530;28;20970;-85
2023/10/19 06:29:19;;;;;;;9.23;7.17;;;;;;;11.71;100.00;154365.81;5013944;28;20594;-85
2023/10/19 06:31:45;;;;;;;9.70;6.57;;;;;;;11.75;100.00;154377.50;5018217;28;20455;-84
2023/10/19 06:34:12;;;;;;;8.70;6.80;;;;;;;11.78;100.00;154385.22;5002914;28;20459;-84
2023/10/19 06:36:41;;;;;;;7.70;6.90;;;;;;;11.76;100.00;154380.06;4998751;28;20491;-84
2023/10/19 06:39:08;;;;;;;9.00;7.40;;;;;;;11.77;100.00;154382.66;5001976;28;21462;-84
2023/10/19 06:41:36;;;;;;;8.93;6.83;;;;;;;11.77;100.00;154382.66;5004454;28;20460;-85
2023/10/19 06:44:03;;;;;;;12.93;7.80;;;;;;;11.78;100.00;154385.22;5016989;28;20460;-85
2023/10/19 06:46:30;;;;;;;9.53;7.67;;;;;;;11.78;100.00;154385.22;5022222;28;20455;-85
2023/10/19 06:49:00;;;;;;;8.53;7.73;;;;;;;11.77;100.00;154381.38;5015602;28;20538;-85
2023/10/19 06:51:27;;;;;;;8.13;7.10;;;;;;;11.74;100.00;154373.59;4998223;28;20804;-86
2023/10/19 06:53:53;;;;;;;8.50;7.60;;;;;;;11.76;100.00;154378.75;5016327;28;20696;-85
2023/10/19 06:56:20;;;;;;;9.47;7.80;;;;;;;11.75;100.00;154376.19;5017657;28;20499;-84
2023/10/19 06:58:48;;;;;;;12.17;8.80;;;;;;;11.79;100.00;154387.84;5017780;28;20455;-86
2023/10/19 07:01:16;;;;;;;10.37;8.40;;;;;;;11.83;100.00;154396.94;4999120;28;20471;-85
2023/10/19 07:03:43;;;;;;;9.47;8.47;;;;;;;11.87;100.00;154408.56;5018670;28;20547;-85
2023/10/19 07:06:13;;;;;;;8.60;7.70;;;;;;;11.91;100.00;154418.97;5015517;28;20948;-85
2023/10/19 07:08:56;;;;;;;9.40;8.37;;;;;;;11.93;100.00;154422.84;5015353;28;20787;-84
2023/10/19 07:11:24;;;;;;;7.83;7.13;;;;;;;11.95;100.00;154428.00;5018399;28;20467;-84
2023/10/19 07:13:52;;;;;;;9.97;8.20;;;;;;;11.97;100.00;154434.50;5018526;28;20485;-84
2023/10/19 07:16:19;;;;;;;7.93;7.10;;;;;;;11.95;100.00;154429.31;5042061;28;20497;-84
2023/10/19 07:18:46;;;;;;;9.43;7.63;;;;;;;11.97;100.00;154434.50;5019355;28;20970;-85
2023/10/19 07:21:13;;;;;;;9.10;7.33;;;;;;;11.98;100.00;154437.09;5018724;28;20465;-85
2023/10/19 07:23:40;;;;;;;8.20;7.27;;;;;;;11.98;100.00;154437.09;5024675;28;20525;-85
2023/10/19 07:26:06;;;;;;;7.93;7.13;;;;;;;12.00;100.00;154442.28;5036259;28;20764;-84
2023/10/19 07:28:33;;;;;;;9.60;8.30;;;;;;;12.03;100.00;154450.06;5026938;28;20882;-85
2023/10/19 07:31:01;;;;;;;9.87;8.40;;;;;;;12.05;100.00;154455.25;5035884;28;20452;-84
2023/10/19 07:33:28;;;;;;;9.60;7.50;;;;;;;12.03;100.00;154450.06;5018124;28;20955;-85
2023/10/19 07:35:55;;;;;;;10.33;8.60;;;;;;;12.01;100.00;154443.59;5007738;28;20479;-85
2023/10/19 07:38:22;;;;;;;11.50;10.30;;;;;;;12.04;100.00;154451.38;5037085;28;20503;-84
2023/10/19 07:40:52;;;;;;;11.47;8.80;;;;;;;12.12;100.00;154473.41;5034743;28;21043;-84
2023/10/19 07:43:20;;;;;;;14.73;10.97;;;;;;;12.21;100.00;154495.41;5017070;28;20452;-85
2023/10/19 07:45:46;;;;;;;12.00;10.77;;;;;;;12.29;100.00;154516.16;5043886;28;20459;-85
2023/10/19 07:48:15;;;;;;;11.83;10.47;;;;;;;12.36;100.00;154534.34;5021262;28;20478;-84
2023/10/19 07:50:42;;;;;;;16.13;12.53;;;;;;;12.47;100.00;154561.59;5022887;28;20940;-84
2023/10/19 07:53:19;;;;;;;14.27;12.67;;;;;;;12.51;100.00;154573.25;5040834;28;20470;-84
2023/10/19 07:55:46;;;;;;;18.50;13.83;;;;;;;12.52;100.00;154574.53;5017193;28;20487;-84
2023/10/19 07:58:12;;;;;;;17.60;14.80;;;;;;;12.57;100.00;154587.50;5023507;28;20447;-84
2023/10/19 08:00:42;;;;;;;16.80;14.53;;;;;;;12.61;100.00;154599.16;5000196;28;20466;-84
2023/10/19 08:03:10;;;;;;;16.43;13.90;;;;;;;12.72;100.00;154627.72;5014580;28;20562;-83
2023/10/19 08:05:38;;;;;;;17.70;14.93;;;;;;;12.80;100.00;154647.16;5018762;28;20544;-84
2023/10/19 08:08:05;;;;;;;16.57;14.30;;;;;;;12.87;100.00;154665.28;5021549;28;20603;-84
2023/10/19 08:10:34;;;;;;;16.93;15.03;;;;;;;12.86;100.00;154662.72;5003576;28;21049;-84
2023/10/19 08:13:01;;;;;;;16.50;14.73;;;;;;;12.90;100.00;154673.09;5024593;28;20443;-85
2023/10/19 08:15:30;;;;;;;17.30;13.93;;;;;;;12.92;100.00;154677.00;5000315;28;20578;-85
2023/10/19 08:17:56;;;;;;;15.90;13.30;;;;;;;12.99;100.00;154696.47;5019850;28;20435;-84
2023/10/19 08:20:30;;;;;;;20.20;13.20;;;;;;;13.04;100.00;154709.44;4999609;28;20457;-85
2023/10/19 08:23:01;;;;;;;15.07;12.87;;;;;;;13.03;100.00;154706.81;5021852;28;20440;-84
2023/10/19 08:25:28;;;;;;;14.83;13.33;;;;;;;13.08;100.00;154719.81;5002921;28;20861;-83
2023/10/19 08:27:56;;;;;;;13.57;12.17;;;;;;;13.11;100.00;154727.63;5020084;28;20457;-85
2023/10/19 08:30:23;;;;;;;15.47;13.03;;;;;;;13.18;100.00;154744.50;5001698;28;20451;-85
2023/10/19 08:32:52;;;;;;;13.10;11.87;;;;;;;13.26;100.00;154766.53;5019042;28;20699;-85
2023/10/19 08:35:25;;;;;;;12.73;11.43;;;;;;;13.33;100.00;154783.44;5001006;28;21327;-85
2023/10/19 08:37:54;;;;;;;13.57;12.17;;;;;;;13.42;100.00;154808.06;5000001;28;20467;-85
2023/10/19 08:40:23;;;;;;;13.97;12.30;;;;;;;13.51;100.00;154828.81;5018126;28;20498;-86
2023/10/19 08:42:50;;;;;;;12.70;11.40;;;;;;;13.54;100.00;154837.91;5018583;28;20675;-85
2023/10/19 08:45:17;;;;;;;11.50;9.50;;;;;;;13.61;100.00;154854.81;4996945;28;20455;-86
2023/10/19 08:47:50;;;;;;;11.67;9.90;;;;;;;13.67;100.00;154870.34;5018305;28;20456;-85
2023/10/19 08:50:20;;;;;;;13.67;10.20;;;;;;;13.73;100.00;154885.94;5020590;28;20483;-86
2023/10/19 08:52:47;;;;;;;10.97;9.87;;;;;;;13.76;100.00;154893.75;5022822;28;20449;-85
2023/10/19 08:55:15;;;;;;;13.10;11.03;;;;;;;13.86;100.00;154919.69;5016809;28;20449;-85
2023/10/19 08:57:43;;;;;;;10.43;9.43;;;;;;;13.84;100.00;154914.50;5019835;28;20544;-86
2023/10/19 09:00:11;;;;;;;11.30;9.80;;;;;;;13.87;100.00;154922.31;5019786;28;20810;-85
2023/10/19 09:02:38;;;;;;;11.47;10.30;;;;;;;13.95;100.00;154943.09;5018757;28;20548;-85
2023/10/19 09:05:08;;;;;;;10.90;9.67;;;;;;;13.93;100.00;154937.84;4998051;28;20460;-85
2023/10/19 09:07:35;;;;;;;11.37;8.77;;;;;;;14.00;100.00;154956.06;5001584;28;20463;-86
2023/10/19 09:10:05;;;;;;;9.70;8.70;;;;;;;14.06;100.00;154971.59;5002155;28;20501;-86
2023/10/19 09:12:32;;;;;;;9.53;8.53;;;;;;;14.20;100.00;155007.97;5000050;28;20981;-86
2023/10/19 09:15:00;;;;;;;10.73;9.77;;;;;;;14.33;100.00;155041.78;5001317;28;20971;-86
2023/10/19 09:17:31;;;;;;;9.87;8.87;;;;;;;14.38;100.00;155054.75;5000551;28;20959;-85
2023/10/19 09:19:59;;;;;;;8.73;7.83;;;;;;;14.37;100.00;155052.19;5020708;28;20455;-86
2023/10/19 09:22:25;;;;;;;8.57;7.67;;;;;;;14.42;100.00;155065.19;5017670;28;20453;-85
2023/10/19 09:24:54;;;;;;;9.73;8.70;;;;;;;14.44;100.00;155070.38;5020255;28;20459;-85
2023/10/19 09:27:20;;;;;;;8.57;7.70;;;;;;;14.53;100.00;155093.72;5006050;28;20459;-85
2023/10/19 09:29:49;;;;;;;9.23;7.80;;;;;;;14.56;100.00;155101.50;5000924;28;20452;-85
2023/10/19 09:32:19;;;;;;;8.77;7.87;;;;;;;14.56;100.00;155100.25;5002510;28;20459;-85
2023/10/19 09:34:47;;;;;;;9.80;8.80;;;;;;;14.55;100.00;155098.94;5001631;28;20473;-85
2023/10/19 09:37:15;;;;;;;10.33;9.33;;;;;;;14.67;100.00;155127.53;5002079;28;20491;-85
2023/10/19 09:39:43;;;;;;;11.83;10.63;;;;;;;14.72;100.00;155141.78;5016712;28;20510;-85
2023/10/19 09:42:11;;;;;;;10.90;9.80;;;;;;;14.80;100.00;155161.31;5015811;28;20489;-85
2023/10/19 09:44:42;;;;;;;11.47;8.80;;;;;;;14.78;100.00;155156.06;4997369;28;20475;-85
2023/10/19 09:47:12;;;;;;;9.50;8.60;;;;;;;14.78;100.00;155156.06;5016340;28;20455;-84
2023/10/19 09:49:42;;;;;;;8.00;7.20;;;;;;;14.86;100.00;155176.84;4999380;28;20447;-85
2023/10/19 09:52:10;;;;;;;11.40;7.60;;;;;;;14.94;100.00;155197.66;5002227;28;20456;-84
2023/10/19 09:54:51;;;;;;;10.60;6.57;;;;;;;15.03;100.00;155222.34;4999024;28;20458;-84
2023/10/19 09:57:24;;;;;;;8.63;7.83;;;;;;;15.04;100.00;155223.63;4982228;28;20467;-84
2023/10/19 09:59:52;;;;;;;8.30;7.40;;;;;;;15.08;100.00;155235.34;5019114;28;20446;-84
2023/10/19 10:02:22;;;;;;;10.03;7.13;;;;;;;15.12;100.00;155245.72;5017908;28;20463;-84
2023/10/19 10:04:49;;;;;;;8.60;7.70;;;;;;;15.12;100.00;155244.41;5018662;28;20444;-84
2023/10/19 10:07:18;;;;;;;8.70;7.80;;;;;;;15.14;100.00;155249.66;5018868;28;20447;-84
2023/10/19 10:09:45;;;;;;;11.53;7.63;;;;;;;15.13;100.00;155247.03;5016958;28;20452;-85
2023/10/19 10:12:19;;;;;;;7.00;6.27;;;;;;;15.13;100.00;155248.34;5016879;28;20452;-85
2023/10/19 10:14:56;;;;;;;8.20;7.40;;;;;;;15.13;100.00;155248.34;5015196;28;20483;-85
2023/10/19 10:17:23;;;;;;;7.97;7.17;;;;;;;15.16;100.00;155254.81;5017235;28;20904;-85
2023/10/19 10:19:55;;;;;;;7.63;6.90;;;;;;;15.15;100.00;155252.22;4997828;28;20558;-85
2023/10/19 10:22:22;;;;;;;9.03;7.87;;;;;;;15.16;100.00;155256.13;5004067;28;20462;-84
2023/10/19 10:24:55;;;;;;;7.90;7.10;;;;;;;15.17;100.00;155258.72;5020002;28;20451;-84
2023/10/19 10:27:22;;;;;;;9.43;7.40;;;;;;;15.19;100.00;155263.94;5006223;28;21015;-84
2023/10/19 10:29:55;;;;;;;10.50;8.27;;;;;;;15.22;100.00;155270.44;4998003;28;20475;-84
2023/10/19 10:32:47;;;;;;;8.90;8.00;;;;;;;15.26;100.00;155280.81;5015869;28;20455;-84
2023/10/19 10:35:47;;;;;;;10.67;8.07;;;;;;;15.24;100.00;155276.94;4998920;28;21012;-85
2023/10/19 10:38:16;;;;;;;9.77;8.70;;;;;;;15.27;100.00;155283.44;5018120;28;20896;-84
2023/10/19 10:40:46;;;;;;;9.50;8.60;;;;;;;15.29;100.00;155287.31;4997849;28;20457;-84
2023/10/19 10:43:12;;;;;;;8.90;8.03;;;;;;;15.29;100.00;155287.31;4999664;28;20456;-85
2023/10/19 10:45:39;;;;;;;9.40;8.50;;;;;;;15.28;100.00;155286.00;4998283;28;20877;-86
2023/10/19 10:48:12;;;;;;;9.03;8.13;;;;;;;15.27;100.00;155282.13;5001590;28;20491;-85
2023/10/19 10:50:39;;;;;;;9.20;8.30;;;;;;;15.29;100.00;155288.63;5015230;28;20454;-85
2023/10/19 10:53:06;;;;;;;9.67;8.77;;;;;;;15.28;100.00;155286.00;5018125;28;20577;-85
2023/10/19 10:55:33;;;;;;;10.80;7.77;;;;;;;15.27;100.00;155283.44;5000108;28;20681;-85
2023/10/19 10:58:00;;;;;;;11.73;8.60;;;;;;;15.25;100.00;155278.19;5019851;28;20475;-86
2023/10/19 11:00:27;;;;;;;8.53;7.30;;;;;;;15.24;100.00;155276.94;4999526;28;20821;-86
2023/10/19 11:03:01;;;;;;;10.07;8.93;;;;;;;15.24;100.00;155275.63;4999079;28;20459;-86
2023/10/19 11:05:27;;;;;;;9.83;8.93;;;;;;;15.24;100.00;155275.63;4998642;28;20444;-84
2023/10/19 11:08:07;;;;;;;10.77;9.67;;;;;;;15.22;100.00;155270.44;4997738;28;20475;-85
2023/10/19 11:10:34;;;;;;;10.47;9.30;;;;;;;15.18;100.00;155261.31;4997039;28;20559;-85
2023/10/19 11:13:02;;;;;;;10.40;9.30;;;;;;;15.20;100.00;155265.19;4998211;28;20539;-85
2023/10/19 11:15:28;;;;;;;10.60;9.60;;;;;;;15.19;100.00;155262.63;4999484;28;20587;-85